Time;durP1;ratioP1;P1;durP2;ratioP2;P2;SDS_P1;SDS_P2;PMS_P1;PMS_P2;Temp;Humidity;BMP_temperature;BMP_pressure;BME280_temperature;BME280_humidity;BME280_pressure;Samples;Min_cycle;Max_cycle;Signal;HPM_P1;HPM_P2
2021/09/25 00:01:55;;;;;;;;;;;;;;;14.76;100.00;100958.13;4992642;28;19921;-89
2021/09/25 00:04:20;;;;;;;;;;;;;;;14.76;100.00;100958.97;4987213;28;20349;-89
2021/09/25 00:06:45;;;;;;;;;;;;;;;14.76;100.00;100958.97;4997607;28;19921;-89
2021/09/25 00:09:11;;;;;;;;;;;;;;;14.77;100.00;100952.53;4995869;28;19959;-89
2021/09/25 00:11:36;;;;;;;;;;;;;;;14.78;100.00;100956.06;5011158;28;20371;-88
2021/09/25 00:14:02;;;;;;;;;;;;;;;14.77;100.00;100955.25;5007363;28;20071;-88
2021/09/25 00:16:28;;;;;;;;;;;;;;;14.79;100.00;100957.72;5009472;28;19921;-88
2021/09/25 00:18:54;;;;;;;;;;;;;;;14.80;100.00;100954.00;5006612;28;19940;-89
2021/09/25 00:21:19;;;;;;;;;;;;;;;14.80;100.00;100944.00;5000768;28;19960;-89
2021/09/25 00:23:45;;;;;;;;;;;;;;;14.80;100.00;100946.72;5006909;28;19917;-88
2021/09/25 00:26:10;;;;;;;;;;;;;;;14.81;100.00;100953.78;4988467;28;20274;-90
2021/09/25 00:28:36;;;;;;;;;;;;;;;14.81;100.00;100945.66;4977523;28;20068;-88
2021/09/25 00:31:02;;;;;;;;;;;;;;;14.81;100.00;100950.25;5010011;28;20366;-90
2021/09/25 00:33:27;;;;;;;;;;;;;;;14.82;100.00;100946.50;4992447;28;20370;-88
2021/09/25 00:35:53;;;;;;;;;;;;;;;14.83;100.00;100942.78;5002117;28;19941;-89
2021/09/25 00:38:18;;;;;;;;;;;;;;;14.84;100.00;100941.72;4979774;28;19927;-89
2021/09/25 00:40:44;;;;;;;;;;;;;;;14.83;100.00;100940.06;5032812;28;19923;-88
2021/09/25 00:43:09;;;;;;;;;;;;;;;14.82;100.00;100932.97;5008142;28;20318;-88
2021/09/25 00:45:35;;;;;;;;;;;;;;;14.82;100.00;100928.41;4996499;28;19921;-88
2021/09/25 00:48:00;;;;;;;;;;;;;;;14.81;100.00;100932.13;5007018;28;19969;-89
2021/09/25 00:50:26;;;;;;;;;;;;;;;14.81;100.00;100934.00;4996842;28;19925;-90
2021/09/25 00:52:53;;;;;;;;;;;;;;;14.82;100.00;100924.84;5003477;28;20309;-89
2021/09/25 00:55:19;;;;;;;;;;;;;;;14.81;100.00;100917.78;4992357;28;20369;-90
2021/09/25 00:57:45;;;;;;;;;;;;;;;14.80;100.00;100921.53;5008574;28;19917;-90
2021/09/25 01:00:10;;;;;;;;;;;;;;;14.79;100.00;100920.69;4979552;28;19921;-90
2021/09/25 01:02:36;;;;;;;;;;;;;;;14.78;100.00;100912.75;4998569;28;20285;-88
2021/09/25 01:05:02;;;;;;;;;;;;;;;14.77;100.00;100914.63;4993096;28;19925;-89
2021/09/25 01:07:27;;;;;;;;;;;;;;;14.76;100.00;100910.25;5013416;28;19983;-89
2021/09/25 01:09:53;;;;;;;;;;;;;;;14.75;100.00;100914.00;4988702;28;19952;-89
2021/09/25 01:12:19;;;;;;;;;;;;;;;14.75;100.00;100914.00;4981859;28;19921;-89
2021/09/25 01:14:44;;;;;;;;;;;;;;;14.75;100.00;100908.56;4991397;28;19925;-88
2021/09/25 01:17:10;;;;;;;;;;;;;;;14.75;100.00;100910.47;4990489;28;20826;-90
2021/09/25 01:19:36;;;;;;;;;;;;;;;14.74;100.00;100912.34;4992117;28;19921;-89
2021/09/25 01:22:02;;;;;;;;;;;;;;;14.73;100.00;100911.47;4993884;28;19929;-90
2021/09/25 01:24:28;;;;;;;;;;;;;;;14.72;100.00;100909.81;5010941;28;20034;-89
2021/09/25 01:26:53;;;;;;;;;;;;;;;14.72;100.00;100920.63;4991387;28;21342;-88
2021/09/25 01:29:19;;;;;;;;;;;;;;;14.72;100.00;100911.69;4998009;28;20408;-88
2021/09/25 01:31:44;;;;;;;;;;;;;;;14.71;100.00;100908.16;4990325;28;19968;-89
2021/09/25 01:34:10;;;;;;;;;;;;;;;14.70;100.00;100901.06;4984991;28;20008;-89
2021/09/25 01:36:35;;;;;;;;;;;;;;;14.71;100.00;100907.28;4989872;28;20028;-89
2021/09/25 01:39:01;;;;;;;;;;;;;;;14.70;100.00;100901.06;4990644;28;20371;-89
2021/09/25 01:41:26;;;;;;;;;;;;;;;14.70;100.00;100897.50;4992547;28;19941;-88
2021/09/25 01:43:52;;;;;;;;;;;;;;;14.69;100.00;100898.56;4989643;28;20011;-88
2021/09/25 01:46:18;;;;;;;;;;;;;;;14.69;100.00;100895.84;4995312;28;19921;-89
2021/09/25 01:48:44;;;;;;;;;;;;;;;14.68;100.00;100897.69;4995884;28;20378;-88
2021/09/25 01:51:10;;;;;;;;;;;;;;;14.64;100.00;100879.38;4978244;28;19952;-89
2021/09/25 01:53:36;;;;;;;;;;;;;;;14.67;100.00;100890.63;4988950;28;20291;-89
2021/09/25 01:56:05;;;;;;;;;;;;;;;14.67;100.00;100889.81;5006614;28;19974;-88
2021/09/25 01:58:33;;;;;;;;;;;;;;;14.67;100.00;100882.50;4997708;28;20448;-88
2021/09/25 02:00:59;;;;;;;;;;;;;;;14.67;100.00;100885.22;5011257;28;19925;-88
2021/09/25 02:03:25;;;;;;;;;;;;;;;14.69;100.00;100876.91;5008939;28;20044;-87
2021/09/25 02:05:50;;;;;;;;;;;;;;;14.69;100.00;100876.91;5018207;28;20339;-89
2021/09/25 02:08:16;;;;;;;;;;;;;;;14.70;100.00;100878.56;4997008;28;19921;-88
2021/09/25 02:10:41;;;;;;;;;;;;;;;14.69;100.00;100877.75;4997407;28;19968;-89
2021/09/25 02:13:07;;;;;;;;;;;;;;;14.64;100.00;100869.38;4997832;28;20016;-88
2021/09/25 02:15:35;;;;;;;;;;;;;;;14.69;100.00;100866.09;4991842;28;19925;-87
2021/09/25 02:18:01;;;;;;;;;;;;;;;14.69;100.00;100866.91;4969022;28;19928;-89
2021/09/25 02:20:26;;;;;;;;;;;;;;;14.70;100.00;100867.75;5003157;28;19921;-89
2021/09/25 02:22:52;;;;;;;;;;;;;;;14.70;100.00;100862.31;5024226;28;20393;-88
2021/09/25 02:25:17;;;;;;;;;;;;;;;14.70;100.00;100859.63;4996258;28;19921;-87
2021/09/25 02:27:43;;;;;;;;;;;;;;;14.68;100.00;100870.63;4989146;28;19968;-89
2021/09/25 02:30:18;;;;;;;;;;;;;;;14.68;100.00;100862.53;4989949;28;19968;-89
2021/09/25 02:32:43;;;;;;;;;;;;;;;14.68;100.00;100856.28;4994626;28;20279;-89
2021/09/25 02:35:10;;;;;;;;;;;;;;;14.68;100.00;100859.81;5011270;28;20000;-89
2021/09/25 02:37:35;;;;;;;;;;;;;;;14.69;100.00;100856.09;4975015;28;20024;-89
2021/09/25 02:40:04;;;;;;;;;;;;;;;14.70;100.00;100851.50;4988871;28;20020;-89
2021/09/25 02:42:29;;;;;;;;;;;;;;;14.70;100.00;100852.34;4983415;28;19937;-89
2021/09/25 02:44:55;;;;;;;;;;;;;;;14.71;100.00;100853.16;5005494;28;19925;-89
2021/09/25 02:47:20;;;;;;;;;;;;;;;14.70;100.00;100846.09;5015169;28;19921;-89
2021/09/25 02:49:46;;;;;;;;;;;;;;;14.70;100.00;100846.91;4995391;28;19952;-87
2021/09/25 02:52:11;;;;;;;;;;;;;;;14.70;100.00;100841.50;5004614;28;19928;-88
2021/09/25 02:54:37;;;;;;;;;;;;;;;14.71;100.00;100839.63;4972839;28;19971;-87
2021/09/25 02:57:03;;;;;;;;;;;;;;;14.70;100.00;100835.25;4994952;28;19921;-89
2021/09/25 02:59:28;;;;;;;;;;;;;;;14.69;100.00;100817.38;5024648;28;19921;-88
2021/09/25 03:01:54;;;;;;;;;;;;;;;14.66;100.00;100821.31;5024963;28;20409;-88
2021/09/25 03:04:19;;;;;;;;;;;;;;;14.66;100.00;100812.34;5009300;28;19921;-89
2021/09/25 03:06:45;;;;;;;;;;;;;;;14.66;100.00;100815.03;4994538;28;19944;-88
2021/09/25 03:09:10;;;;;;;;;;;;;;;14.63;100.00;100810.03;4991514;28;19929;-89
2021/09/25 03:11:36;;;;;;;;;;;;;;;14.63;100.00;100813.59;4991740;28;19921;-89
2021/09/25 03:14:01;;;;;;;;;;;;;;;14.65;100.00;100807.97;4989687;28;19921;-89
2021/09/25 03:16:27;;;;;;;;;;;;;;;14.64;100.00;100806.31;4992530;28;20624;-89
2021/09/25 03:18:52;;;;;;;;;;;;;;;14.63;100.00;100812.75;5004233;28;20024;-89
2021/09/25 03:21:18;;;;;;;;;;;;;;;14.65;100.00;100810.66;4987257;28;20024;-89
2021/09/25 03:23:43;;;;;;;;;;;;;;;14.63;100.00;100808.19;5013545;28;19940;-89
2021/09/25 03:26:09;;;;;;;;;;;;;;;14.62;100.00;100801.09;4995750;28;19928;-88
2021/09/25 03:28:34;;;;;;;;;;;;;;;14.61;100.00;100809.44;5009633;28;20019;-88
2021/09/25 03:31:00;;;;;;;;;;;;;;;14.58;100.00;100804.38;4993532;28;19922;-88
2021/09/25 03:33:25;;;;;;;;;;;;;;;14.55;100.00;100800.22;5013260;28;19921;-89
2021/09/25 03:35:51;;;;;;;;;;;;;;;14.52;100.00;100790.63;5013523;28;20283;-89
2021/09/25 03:38:21;;;;;;;;;;;;;;;14.52;100.00;100792.47;5016504;28;19927;-89
2021/09/25 03:40:47;;;;;;;;;;;;;;;14.49;100.00;100785.59;4980994;28;19922;-88
2021/09/25 03:43:13;;;;;;;;;;;;;;;14.48;100.00;100788.50;4976816;28;19952;-90
2021/09/25 03:45:39;;;;;;;;;;;;;;;14.46;100.00;100791.41;5010525;28;20386;-89
2021/09/25 03:48:05;;;;;;;;;;;;;;;14.44;100.00;100795.34;5010973;28;19928;-89
2021/09/25 03:50:31;;;;;;;;;;;;;;;14.42;100.00;100797.41;5002760;28;19952;-87
2021/09/25 03:53:00;;;;;;;;;;;;;;;14.39;100.00;100793.22;5001249;28;19991;-87
2021/09/25 03:55:25;;;;;;;;;;;;;;;14.36;100.00;100796.34;4995461;28;19944;-88
2021/09/25 03:57:53;;;;;;;;;;;;;;;14.34;100.00;100797.56;4998120;28;20367;-87
2021/09/25 04:00:18;;;;;;;;;;;;;;;14.30;100.00;100789.88;5015135;28;20088;-89
2021/09/25 04:02:44;;;;;;;;;;;;;;;14.29;100.00;100788.22;4993321;28;20449;-89
2021/09/25 04:05:09;;;;;;;;;;;;;;;14.29;100.00;100790.09;5013150;28;19922;-88
2021/09/25 04:07:35;;;;;;;;;;;;;;;14.27;100.00;100795.69;4993663;28;19921;-88
2021/09/25 04:10:00;;;;;;;;;;;;;;;14.24;100.00;100792.53;4976907;28;20016;-88
2021/09/25 04:12:26;;;;;;;;;;;;;;;14.22;100.00;100778.38;4975348;28;20371;-88
2021/09/25 04:14:52;;;;;;;;;;;;;;;14.20;100.00;100769.63;5003900;28;20301;-88
2021/09/25 04:17:17;;;;;;;;;;;;;;;14.18;100.00;100769.81;4992580;28;19932;-89
2021/09/25 04:19:43;;;;;;;;;;;;;;;14.17;100.00;100767.31;4995468;28;20303;-88
2021/09/25 04:22:08;;;;;;;;;;;;;;;14.18;100.00;100766.28;4979043;28;19936;-90
2021/09/25 04:24:34;;;;;;;;;;;;;;;14.18;100.00;100766.28;4995773;28;19921;-88
2021/09/25 04:26:59;;;;;;;;;;;;;;;14.17;100.00;100770.84;4988152;28;19995;-88
2021/09/25 04:29:25;;;;;;;;;;;;;;;14.16;100.00;100771.06;4995484;28;19940;-89
2021/09/25 04:31:50;;;;;;;;;;;;;;;14.15;100.00;100767.50;4982805;28;19921;-88
2021/09/25 04:34:18;;;;;;;;;;;;;;;14.16;100.00;100768.38;4979607;28;19937;-90
2021/09/25 04:36:44;;;;;;;;;;;;;;;14.14;100.00;100763.16;4984404;28;19922;-87
2021/09/25 04:39:09;;;;;;;;;;;;;;;14.16;100.00;100762.97;4994385;28;19956;-89
2021/09/25 04:41:35;;;;;;;;;;;;;;;14.16;100.00;100758.38;4981317;28;19966;-88
2021/09/25 04:44:00;;;;;;;;;;;;;;;14.16;100.00;100762.97;4996951;28;19930;-89
2021/09/25 04:46:28;;;;;;;;;;;;;;;14.15;100.00;100755.88;4999210;28;19930;-87
2021/09/25 04:48:53;;;;;;;;;;;;;;;14.15;100.00;100753.16;4997113;28;19955;-89
2021/09/25 04:51:19;;;;;;;;;;;;;;;14.14;100.00;100754.22;4993142;28;19940;-89
2021/09/25 04:53:45;;;;;;;;;;;;;;;14.13;100.00;100750.69;4976829;28;19921;-89
2021/09/25 04:56:10;;;;;;;;;;;;;;;14.14;100.00;100757.75;4986125;28;19921;-89
2021/09/25 04:58:37;;;;;;;;;;;;;;;14.13;100.00;100760.63;4995235;28;19932;-90
2021/09/25 05:01:04;;;;;;;;;;;;;;;14.12;100.00;100757.09;4995010;28;19921;-89
2021/09/25 05:03:29;;;;;;;;;;;;;;;14.13;100.00;100768.75;4993682;28;19921;-89
2021/09/25 05:05:55;;;;;;;;;;;;;;;14.14;100.00;100762.31;4981902;28;20318;-88
2021/09/25 05:08:20;;;;;;;;;;;;;;;14.13;100.00;100763.34;4995692;28;20027;-88
2021/09/25 05:10:46;;;;;;;;;;;;;;;14.11;100.00;100758.16;4985790;28;19921;-88
2021/09/25 05:13:11;;;;;;;;;;;;;;;14.10;100.00;100767.28;4995868;28;20360;-89
2021/09/25 05:15:37;;;;;;;;;;;;;;;14.07;100.00;100754.97;4993252;28;19932;-90
2021/09/25 05:18:02;;;;;;;;;;;;;;;14.06;100.00;100757.91;4996504;28;20421;-87
2021/09/25 05:20:28;;;;;;;;;;;;;;;14.06;100.00;100756.03;4975704;28;19929;-89
2021/09/25 05:22:53;;;;;;;;;;;;;;;14.05;100.00;100748.97;4971837;28;20002;-89
2021/09/25 05:25:19;;;;;;;;;;;;;;;14.05;100.00;100745.41;4978593;28;19944;-87
2021/09/25 05:27:44;;;;;;;;;;;;;;;14.03;100.00;100742.91;4994002;28;20003;-89
2021/09/25 05:30:11;;;;;;;;;;;;;;;14.05;100.00;100740.84;5002691;28;20366;-88
2021/09/25 05:32:36;;;;;;;;;;;;;;;14.06;100.00;100736.28;4984688;28;19948;-87
2021/09/25 05:35:04;;;;;;;;;;;;;;;14.06;100.00;100742.50;4994166;28;19925;-88
2021/09/25 05:37:32;;;;;;;;;;;;;;;14.08;100.00;100739.63;4992625;28;19971;-89
2021/09/25 05:39:58;;;;;;;;;;;;;;;14.09;100.00;100746.69;4969892;28;20397;-89
2021/09/25 05:42:27;;;;;;;;;;;;;;;14.10;100.00;100747.50;4977769;28;19921;-88
2021/09/25 05:44:54;;;;;;;;;;;;;;;14.11;100.00;100741.09;4985108;28;20020;-89
2021/09/25 05:47:23;;;;;;;;;;;;;;;14.10;100.00;100739.41;4988607;28;19921;-89
2021/09/25 05:49:48;;;;;;;;;;;;;;;14.09;100.00;100743.97;4996600;28;19930;-88
2021/09/25 05:52:14;;;;;;;;;;;;;;;14.08;100.00;100745.03;4989472;28;20012;-89
2021/09/25 05:54:43;;;;;;;;;;;;;;;14.07;100.00;100746.88;4987431;28;19922;-86
2021/09/25 05:57:08;;;;;;;;;;;;;;;14.09;100.00;100749.38;5008248;28;19925;-88
2021/09/25 05:59:34;;;;;;;;;;;;;;;14.10;100.00;100752.91;5001161;28;19938;-89
2021/09/25 06:02:00;;;;;;;;;;;;;;;14.08;100.00;100751.25;4977273;28;19936;-89
2021/09/25 06:04:28;;;;;;;;;;;;;;;14.07;100.00;100752.28;4971479;28;20501;-88
2021/09/25 06:06:54;;;;;;;;;;;;;;;14.03;100.00;100751.03;4976189;28;20591;-90
2021/09/25 06:09:19;;;;;;;;;;;;;;;14.00;100.00;100754.13;4981968;28;19928;-87
2021/09/25 06:11:45;;;;;;;;;;;;;;;13.97;100.00;100751.81;4969825;28;19922;-89
2021/09/25 06:14:10;;;;;;;;;;;;;;;13.98;100.00;100749.94;5015015;28;19921;-88
2021/09/25 06:16:36;;;;;;;;;;;;;;;13.97;100.00;100757.22;4993154;28;20345;-89
2021/09/25 06:19:01;;;;;;;;;;;;;;;13.97;100.00;100748.25;4995154;28;20268;-88
2021/09/25 06:21:27;;;;;;;;;;;;;;;13.96;100.00;100741.19;4985869;28;19921;-88
2021/09/25 06:23:52;;;;;;;;;;;;;;;13.93;100.00;100745.13;4991514;28;19929;-89
2021/09/25 06:26:18;;;;;;;;;;;;;;;13.92;100.00;100739.91;4988786;28;19931;-88
2021/09/25 06:28:47;;;;;;;;;;;;;;;13.92;100.00;100732.66;4993181;28;19921;-87
2021/09/25 06:31:13;;;;;;;;;;;;;;;13.93;100.00;100731.63;4980958;28;19967;-88
2021/09/25 06:33:38;;;;;;;;;;;;;;;13.94;100.00;100732.44;4995049;28;19968;-87
2021/09/25 06:36:04;;;;;;;;;;;;;;;13.95;100.00;100729.56;5020941;28;19971;-89
2021/09/25 06:38:29;;;;;;;;;;;;;;;13.94;100.00;100729.75;5016393;28;19925;-89
2021/09/25 06:40:55;;;;;;;;;;;;;;;13.95;100.00;100728.72;4967975;28;19928;-89
2021/09/25 06:43:20;;;;;;;;;;;;;;;13.96;100.00;100723.09;4967160;28;20346;-88
2021/09/25 06:45:46;;;;;;;;;;;;;;;13.99;100.00;100725.41;4991433;28;20350;-89
2021/09/25 06:48:11;;;;;;;;;;;;;;;13.99;100.00;100728.13;4998267;28;19925;-87
2021/09/25 06:50:38;;;;;;;;;;;;;;;13.98;100.00;100729.16;4984982;28;20477;-87
2021/09/25 06:53:03;;;;;;;;;;;;;;;13.99;100.00;100722.72;5018272;28;20067;-88
2021/09/25 06:55:29;;;;;;;;;;;;;;;14.00;100.00;100723.56;4998143;28;20688;-89
2021/09/25 06:57:56;;;;;;;;;;;;;;;14.00;100.00;100727.09;4995609;28;19930;-89
2021/09/25 07:00:21;;;;;;;;;;;;;;;14.02;100.00;100724.19;4978651;28;19930;-86
2021/09/25 07:02:47;;;;;;;;;;;;;;;14.02;100.00;100729.59;4979228;28;19968;-89
2021/09/25 07:05:12;;;;;;;;;;;;;;;14.02;100.00;100725.00;4980625;28;19921;-87
2021/09/25 07:07:38;;;;;;;;;;;;;;;14.02;100.00;100721.47;4983732;28;20528;-88
2021/09/25 07:10:04;;;;;;;;;;;;;;;14.02;100.00;100719.59;4979612;28;20343;-88
2021/09/25 07:12:30;;;;;;;;;;;;;;;14.06;100.00;100723.59;4995628;28;19929;-88
2021/09/25 07:14:56;;;;;;;;;;;;;;;14.12;100.00;100721.94;4981031;28;19925;-86
2021/09/25 07:17:23;;;;;;;;;;;;;;;14.16;100.00;100715.13;4986614;28;19926;-87
2021/09/25 07:19:48;;;;;;;;;;;;;;;14.20;100.00;100708.25;4998647;28;19925;-88
2021/09/25 07:22:14;;;;;;;;;;;;;;;14.20;100.00;100713.66;4978420;28;19957;-89
2021/09/25 07:24:42;;;;;;;;;;;;;;;14.23;100.00;100713.25;4997732;28;19951;-87
2021/09/25 07:27:07;;;;;;;;;;;;;;;14.25;100.00;100713.06;4988666;28;20329;-89
2021/09/25 07:29:33;;;;;;;;;;;;;;;14.30;100.00;100710.59;5000494;28;19925;-89
2021/09/25 07:31:58;;;;;;;;;;;;;;;14.36;100.00;100719.78;4985428;28;19921;-89
2021/09/25 07:34:24;;;;;;;;;;;;;;;14.33;100.00;100710.19;4995434;28;20015;-88
2021/09/25 07:36:50;;;;;;;;;;;;;;;14.35;100.00;100708.13;4998161;28;19921;-88
2021/09/25 07:39:15;;;;;;;;;;;;;;;14.39;100.00;100706.66;4980274;28;19929;-90
2021/09/25 07:41:41;;;;;;;;;;;;;;;14.44;100.00;100712.31;4980392;28;19968;-88
2021/09/25 07:44:06;;;;;;;;;;;;;;;14.44;100.00;100706.06;4972015;28;19928;-88
2021/09/25 07:46:32;;;;;;;;;;;;;;;14.42;100.00;100705.44;4988279;28;20024;-88
2021/09/25 07:48:59;;;;;;;;;;;;;;;14.44;100.00;100701.50;4971765;28;19929;-89
2021/09/25 07:51:27;;;;;;;;;;;;;;;14.45;100.00;100708.59;4996210;28;20297;-88
2021/09/25 07:53:53;;;;;;;;;;;;;;;14.46;100.00;100698.59;4995116;28;19979;-88
2021/09/25 07:56:19;;;;;;;;;;;;;;;14.47;100.00;100703.81;4983080;28;19921;-89
2021/09/25 07:58:44;;;;;;;;;;;;;;;14.54;100.00;100703.84;4972011;28;19926;-87
2021/09/25 08:01:10;;;;;;;;;;;;;;;14.63;100.00;100705.34;4987911;28;20377;-88
2021/09/25 08:03:35;;;;;;;;;;;;;;;14.69;100.00;100698.28;4970787;28;20331;-88
2021/09/25 08:06:01;;;;;;;;;;;;;;;14.69;100.00;100704.53;4967749;28;19925;-87
2021/09/25 08:08:26;;;;;;;;;;;;;;;14.75;100.00;100700.16;4997853;28;19975;-88
2021/09/25 08:10:52;;;;;;;;;;;;;;;14.85;100.00;100707.91;5000084;28;19931;-87
2021/09/25 08:13:17;;;;;;;;;;;;;;;14.89;100.00;100703.72;4985584;28;19929;-88
2021/09/25 08:15:43;;;;;;;;;;;;;;;14.97;100.00;100710.81;4995527;28;19980;-88
2021/09/25 08:18:09;;;;;;;;;;;;;;;14.89;100.00;100709.16;4969350;28;19936;-87
2021/09/25 08:20:34;;;;;;;;;;;;;;;14.82;100.00;100709.16;4979547;28;19929;-88
2021/09/25 08:23:00;;;;;;;;;;;;;;;14.80;100.00;100700.38;4983855;28;20381;-87
2021/09/25 08:25:25;;;;;;;;;;;;;;;14.82;100.00;100709.16;4967976;28;19929;-88
2021/09/25 08:27:51;;;;;;;;;;;;;;;14.83;100.00;100709.97;4998152;28;19922;-88
2021/09/25 08:30:17;;;;;;;;;;;;;;;14.88;100.00;100699.38;4984572;28;19921;-87
2021/09/25 08:32:42;;;;;;;;;;;;;;;14.93;100.00;100707.72;4993020;28;19921;-87
2021/09/25 08:35:08;;;;;;;;;;;;;;;15.05;100.00;100705.22;4987102;28;19929;-87
2021/09/25 08:37:35;;;;;;;;;;;;;;;15.12;100.00;100693.34;4982664;28;20403;-87
2021/09/25 08:40:00;;;;;;;;;;;;;;;15.02;100.00;100702.91;4983327;28;20440;-87
2021/09/25 08:42:26;;;;;;;;;;;;;;;15.02;100.00;100694.81;4993039;28;20052;-88
2021/09/25 08:44:52;;;;;;;;;;;;;;;15.09;100.00;100680.22;5023536;28;19962;-88
2021/09/25 08:47:19;;;;;;;;;;;;;;;15.14;100.00;100679.63;4981665;28;19932;-88
2021/09/25 08:49:45;;;;;;;;;;;;;;;15.12;100.00;100689.81;5005331;28;19979;-88
2021/09/25 08:52:10;;;;;;;;;;;;;;;15.13;100.00;100688.75;4994671;28;20374;-88
2021/09/25 08:54:36;;;;;;;;;;;;;;;15.18;100.00;100687.09;5014022;28;19963;-88
2021/09/25 08:57:04;;;;;;;;;;;;;;;15.14;100.00;100685.84;4995481;28;20362;-89
2021/09/25 08:59:30;;;;;;;;;;;;;;;15.11;100.00;100686.28;5005468;28;19929;-88
2021/09/25 09:01:56;;;;;;;;;;;;;;;15.07;100.00;100685.00;4982945;28;19917;-87
2021/09/25 09:04:21;;;;;;;;;;;;;;;15.06;100.00;100693.34;4988147;28;19925;-88
2021/09/25 09:06:48;;;;;;;;;;;;;;;15.04;100.00;100690.03;5006583;28;20433;-87
2021/09/25 09:09:15;;;;;;;;;;;;;;;15.04;100.00;100700.84;5000280;28;19961;-87
2021/09/25 09:11:48;;;;;;;;;;;;;;;15.00;100.00;100700.41;5012287;28;19917;-87
2021/09/25 09:14:14;;;;;;;;;;;;;;;15.00;100.00;100699.56;5012547;28;19927;-88
2021/09/25 09:16:40;;;;;;;;;;;;;;;14.94;100.00;100693.94;4994495;28;19944;-88
2021/09/25 09:19:05;;;;;;;;;;;;;;;14.95;100.00;100695.63;4980713;28;20382;-88
2021/09/25 09:21:31;;;;;;;;;;;;;;;15.02;100.00;100694.81;5018056;28;19939;-87
2021/09/25 09:24:01;;;;;;;;;;;;;;;15.29;100.00;100701.06;4988994;28;19921;-87
2021/09/25 09:26:30;;;;;;;;;;;;;;;15.36;100.00;100694.59;4986702;28;20351;-87
2021/09/25 09:28:57;;;;;;;;;;;;;;;15.72;100.00;100704.19;4996989;28;19928;-88
2021/09/25 09:31:22;;;;;;;;;;;;;;;15.92;100.00;100703.31;5012795;28;20373;-88
2021/09/25 09:34:01;;;;;;;;;;;;;;;15.85;100.00;100697.06;5106909;27;20326;-88
2021/09/25 09:36:30;;;;;;;;;;;;;;;15.73;100.00;100695.00;5108243;28;19916;-87
2021/09/25 09:38:55;;;;;;;;;;;;;;;15.60;100.00;100701.25;5106469;28;20181;-87
2021/09/25 09:41:47;;;;;;;;;;;;;;;15.58;100.00;100688.94;5099331;28;20007;-87
2021/09/25 09:44:17;;;;;;;;;;;;;;;15.67;100.00;100695.00;5092418;28;19926;-88
2021/09/25 09:46:49;;;;;;;;;;;;;;;15.55;100.00;100692.09;5101106;28;19920;-87
2021/09/25 09:49:15;;;;;;;;;;;;;;;15.42;100.00;100689.38;5086907;28;19916;-87
2021/09/25 09:51:41;;;;;;;;;;;;;;;15.42;100.00;100687.50;5096172;28;19995;-88
2021/09/25 09:54:17;;;;;;;;;;;;;;;15.35;100.00;100686.69;5109349;28;19998;-87
2021/09/25 09:56:43;;;;;;;;;;;;;;;15.45;100.00;100675.41;5116038;28;20311;-87
2021/09/25 09:59:09;;;;;;;;;;;;;;;15.63;100.00;100675.59;5101363;28;19925;-87
2021/09/25 10:01:35;;;;;;;;;;;;;;;15.94;100.00;100669.53;5112092;28;20356;-87
2021/09/25 10:04:01;;;;;;;;;;;;;;;16.04;100.00;100669.91;5120912;28;19924;-87
2021/09/25 10:06:26;;;;;;;;;;;;;;;15.90;100.00;100678.28;5106228;28;19912;-88
2021/09/25 10:08:52;;;;;;;;;;;;;;;15.78;100.00;100668.09;5083623;28;19920;-87
2021/09/25 10:11:18;;;;;;;;;;;;;;;15.75;100.00;100681.25;5104243;28;19922;-88
2021/09/25 10:13:44;;;;;;;;;;;;;;;15.79;100.00;100677.88;5089732;28;20431;-87
2021/09/25 10:16:09;;;;;;;;;;;;;;;15.69;100.00;100672.09;5112993;27;20334;-84
2021/09/25 10:18:35;;;;;;;;;;;;;;;15.70;100.00;100670.22;5102150;28;19976;-84
2021/09/25 10:21:02;;;;;;;;;;;;;;;15.93;100.00;100673.28;5071764;28;19916;-84
2021/09/25 10:23:27;;;;;;;;;;;;;;;16.16;100.00;100677.38;5111984;27;20455;-84
2021/09/25 10:25:53;;;;;;;;;;;;;;;16.41;99.87;100672.88;5088326;28;19965;-85
2021/09/25 10:28:22;;;;;;;;;;;;;;;16.48;97.88;100667.41;5089886;28;19912;-85
2021/09/25 10:30:49;;;;;;;;;;;;;;;16.43;96.79;100665.38;5099360;28;19947;-85
2021/09/25 10:33:15;;;;;;;;;;;;;;;16.46;97.22;100670.34;5112466;28;19972;-84
2021/09/25 10:35:40;;;;;;;;;;;;;;;16.88;96.23;100662.63;5102800;28;20053;-84
2021/09/25 10:38:06;;;;;;;;;;;;;;;17.19;94.58;100668.22;5087406;28;20065;-85
2021/09/25 10:40:36;;;;;;;;;;;;;;;17.46;93.74;100658.78;5138048;27;19922;-84
2021/09/25 10:43:13;;;;;;;;;;;;;;;17.14;94.50;100658.03;5103129;28;19924;-85
2021/09/25 10:45:39;;;;;;;;;;;;;;;17.14;95.43;100658.84;5088296;28;20396;-84
2021/09/25 10:48:05;;;;;;;;;;;;;;;17.23;94.15;100662.13;5058357;28;19916;-85
2021/09/25 10:50:30;;;;;;;;;;;;;;;17.13;95.78;100668.06;5092141;28;19912;-85
2021/09/25 10:53:05;;;;;;;;;;;;;;;17.46;93.74;100656.06;5089589;28;19923;-85
2021/09/25 10:55:31;;;;;;;;;;;;;;;18.07;90.63;100657.09;5091905;28;19923;-85
2021/09/25 10:58:23;;;;;;;;;;;;;;;18.46;86.53;100653.03;5082913;28;19912;-85
2021/09/25 11:00:52;;;;;;;;;;;;;;;18.69;85.99;100656.94;5091344;28;19916;-84
2021/09/25 11:03:37;;;;;;;;;;;;;;;18.54;87.09;100654.63;5090524;28;20015;-85
2021/09/25 11:06:03;;;;;;;;;;;;;;;18.55;87.72;100653.56;5074416;28;19920;-85
2021/09/25 11:08:32;;;;;;;;;;;;;;;18.63;84.94;100657.88;5075781;28;20487;-85
2021/09/25 11:11:07;;;;;;;;;;;;;;;18.69;85.11;100648.75;5074187;28;19913;-85
2021/09/25 11:14:05;;;;;;;;;;;;;;;18.40;85.12;100645.81;5105684;28;19919;-85
2021/09/25 11:16:43;;;;;;;;;;;;;;;19.88;81.49;100631.47;5084954;28;20327;-85
2021/09/25 11:19:21;;;;;;;;;;;;;;;21.40;74.46;100635.34;5118327;27;20418;-85
2021/09/25 11:22:05;;;;;;;;;;;;;;;23.97;62.15;100623.09;5118143;27;19917;-85
2021/09/25 11:24:32;;;;;;;;;;;;;;;26.45;56.34;100634.50;5108839;28;19916;-85
2021/09/25 11:26:57;;;;;;;;;;;;;;;26.30;52.47;100630.75;5088760;28;19930;-85
2021/09/25 11:29:23;;;;;;;;;;;;;;;24.18;57.96;100618.50;5086017;28;19916;-85
2021/09/25 11:31:49;;;;;;;;;;;;;;;22.42;64.73;100604.91;5073897;28;19982;-84
2021/09/25 11:34:25;;;;;;;;;;;;;;;21.94;65.77;100607.38;5056693;28;20255;-85
2021/09/25 11:36:51;;;;;;;;;;;;;;;21.91;66.75;100607.84;5058089;28;20379;-85
2021/09/25 11:39:29;;;;;;;;;;;;;;;23.42;61.42;100602.47;5086254;28;19922;-85
2021/09/25 11:42:15;;;;;;;;;;;;;;;24.50;58.26;100607.31;5087619;28;19928;-85
2021/09/25 11:44:40;;;;;;;;;;;;;;;29.39;44.71;100592.84;5089866;28;20450;-86
2021/09/25 11:47:06;;;;;;;;;;;;;;;31.06;39.18;100592.22;5063283;28;20015;-86
2021/09/25 11:49:31;;;;;;;;;;;;;;;30.59;40.28;100595.31;5083549;28;19946;-87
2021/09/25 11:51:59;;;;;;;;;;;;;;;28.36;43.99;100588.16;5085784;28;19920;-87
2021/09/25 11:54:25;;;;;;;;;;;;;;;26.90;46.98;100583.72;5074433;28;19920;-86
2021/09/25 11:56:50;;;;;;;;;;;;;;;24.86;52.75;100579.88;5055156;28;19930;-86
2021/09/25 11:59:18;;;;;;;;;;;;;;;24.43;55.80;100576.53;5074213;28;20015;-86
2021/09/25 12:01:45;;;;;;;;;;;;;;;26.80;50.51;100571.97;5098571;28;19916;-86
2021/09/25 12:04:11;;;;;;;;;;;;;;;30.21;43.75;100584.50;5083876;28;19950;-87
2021/09/25 12:06:37;;;;;;;;;;;;;;;32.03;39.30;100574.81;5083060;28;20389;-87
2021/09/25 12:09:02;;;;;;;;;;;;;;;31.62;39.32;100570.44;5089621;28;19927;-86
2021/09/25 12:11:27;;;;;;;;;;;;;;;30.97;38.63;100560.81;5081086;28;19916;-86
2021/09/25 12:13:54;;;;;;;;;;;;;;;29.57;42.01;100567.81;5094532;28;19920;-86
2021/09/25 12:16:20;;;;;;;;;;;;;;;29.23;41.89;100568.22;5104811;28;19923;-86
2021/09/25 12:18:47;;;;;;;;;;;;;;;29.69;42.44;100569.28;5067720;28;19912;-86
2021/09/25 12:21:16;;;;;;;;;;;;;;;29.11;41.53;100551.28;5057488;28;19920;-86
2021/09/25 12:23:46;;;;;;;;;;;;;;;28.59;43.07;100554.09;5091536;28;19912;-86
2021/09/25 12:26:14;;;;;;;;;;;;;;;26.72;48.12;100548.56;5112397;27;19916;-85